createdAt,value
2023-04-27T00:00:19.536Z,20.46
2023-04-27T00:01:19.606Z,20.48
2023-04-27T00:02:19.826Z,20.49
2023-04-27T00:03:19.878Z,20.43
2023-04-27T00:04:19.907Z,20.46
2023-04-27T00:05:19.885Z,20.45
2023-04-27T00:06:19.914Z,20.49
2023-04-27T00:07:19.956Z,20.48
2023-04-27T00:08:20.023Z,20.46
2023-04-27T00:09:20.069Z,20.46
2023-04-27T00:10:20.129Z,20.46
2023-04-27T00:11:20.185Z,20.49
2023-04-27T00:12:20.232Z,20.49
2023-04-27T00:13:20.288Z,20.51
2023-04-27T00:14:20.366Z,20.53
2023-04-27T00:15:20.426Z,20.45
2023-04-27T00:16:20.520Z,20.51
2023-04-27T00:17:20.558Z,20.54
2023-04-27T00:18:20.578Z,20.54
2023-04-27T00:19:20.654Z,20.53
2023-04-27T00:20:20.752Z,20.51
2023-04-27T00:21:20.817Z,20.53
2023-04-27T00:22:20.840Z,20.53
2023-04-27T00:23:20.901Z,20.51
2023-04-27T00:24:20.947Z,20.54
2023-04-27T00:25:20.981Z,20.49
2023-04-27T00:26:21.035Z,20.54
2023-04-27T00:27:21.113Z,20.53
2023-04-27T00:28:21.172Z,20.51
2023-04-27T00:29:21.234Z,20.57
2023-04-27T00:30:21.295Z,20.56
2023-04-27T00:31:21.436Z,20.56
2023-04-27T00:32:21.529Z,20.56
2023-04-27T00:33:21.472Z,20.53
2023-04-27T00:34:21.535Z,20.57
2023-04-27T00:35:21.592Z,20.54
2023-04-27T00:36:21.641Z,20.53
2023-04-27T00:37:21.693Z,20.56
2023-04-27T00:38:21.731Z,20.54
2023-04-27T00:39:21.778Z,20.51
2023-04-27T00:40:21.851Z,20.57
2023-04-27T00:41:21.914Z,20.59
2023-04-27T00:42:21.965Z,20.56
2023-04-27T00:43:22.034Z,20.56
2023-04-27T00:44:22.063Z,20.60
2023-04-27T00:45:22.134Z,20.63
2023-04-27T00:46:22.196Z,20.59
2023-04-27T00:47:22.266Z,20.59
2023-04-27T00:48:22.314Z,20.57
2023-04-27T00:49:22.404Z,20.53
2023-04-27T00:50:22.419Z,20.60
2023-04-27T00:51:22.471Z,20.61
2023-04-27T00:52:22.541Z,20.59
2023-04-27T00:53:22.608Z,20.61
2023-04-27T00:54:22.633Z,20.68
2023-04-27T00:55:22.705Z,20.60
2023-04-27T00:56:22.756Z,20.61
2023-04-27T00:57:22.783Z,20.61
2023-04-27T00:58:22.822Z,20.59
2023-04-27T00:59:22.871Z,20.63
2023-04-27T01:00:22.919Z,20.63
2023-04-27T01:01:23.019Z,20.63
2023-04-27T01:02:23.133Z,20.65
2023-04-27T01:03:23.211Z,20.60
2023-04-27T01:04:23.234Z,20.68
2023-04-27T01:05:23.140Z,20.61
2023-04-27T01:06:23.184Z,20.71
2023-04-27T01:07:23.233Z,20.66
2023-04-27T01:08:23.257Z,20.66
2023-04-27T01:09:23.316Z,20.68
2023-04-27T01:10:23.354Z,20.65
2023-04-27T01:11:23.424Z,20.65
2023-04-27T01:12:23.493Z,20.68
2023-04-27T01:13:23.544Z,20.66
2023-04-27T01:14:23.587Z,20.66
2023-04-27T01:15:23.635Z,20.66
2023-04-27T01:16:23.694Z,20.68
2023-04-27T01:17:23.759Z,20.74
2023-04-27T01:18:23.760Z,20.69
2023-04-27T01:19:23.831Z,20.72
2023-04-27T01:20:23.881Z,20.69
2023-04-27T01:21:23.916Z,20.71
2023-04-27T01:22:23.963Z,20.63
2023-04-27T01:23:24.019Z,20.68
2023-04-27T01:24:24.042Z,20.69
2023-04-27T01:25:24.095Z,20.68
2023-04-27T01:26:24.131Z,20.69
2023-04-27T01:27:24.173Z,20.69
2023-04-27T01:28:24.239Z,20.69
2023-04-27T01:29:24.313Z,20.72
2023-04-27T01:30:24.356Z,20.66
2023-04-27T01:31:24.436Z,20.71
2023-04-27T01:32:24.444Z,20.71
2023-04-27T01:33:24.502Z,20.74
2023-04-27T01:34:24.534Z,20.74
2023-04-27T01:35:25.699Z,20.69
2023-04-27T01:36:24.555Z,20.71
2023-04-27T01:37:24.543Z,20.71
2023-04-27T01:38:24.538Z,20.69
2023-04-27T01:39:24.549Z,20.77
2023-04-27T01:40:24.541Z,20.74
2023-04-27T01:41:24.536Z,20.76
2023-04-27T01:42:24.528Z,20.71
2023-04-27T01:43:24.529Z,20.76
2023-04-27T01:44:24.516Z,20.78
2023-04-27T01:45:24.511Z,20.72
2023-04-27T01:46:24.585Z,20.77
2023-04-27T01:47:24.504Z,20.72
2023-04-27T01:48:24.490Z,20.76
2023-04-27T01:49:24.483Z,20.74
2023-04-27T01:50:24.472Z,20.76
2023-04-27T01:51:24.461Z,20.71
2023-04-27T01:52:24.468Z,20.77
2023-04-27T01:53:24.452Z,20.72
2023-04-27T01:54:25.596Z,20.76
2023-04-27T01:55:24.450Z,20.72
2023-04-27T01:56:24.443Z,20.78
2023-04-27T01:57:24.494Z,20.77
2023-04-27T01:58:24.543Z,20.78
2023-04-27T01:59:24.577Z,20.80
2023-04-27T02:00:24.651Z,20.76
2023-04-27T02:01:24.723Z,20.78
2023-04-27T02:02:24.894Z,20.78
2023-04-27T02:03:24.931Z,20.80
2023-04-27T02:04:24.897Z,20.76
2023-04-27T02:05:24.914Z,20.81
2023-04-27T02:06:24.985Z,20.78
2023-04-27T02:07:25.018Z,20.76
2023-04-27T02:08:25.057Z,20.76
2023-04-27T02:09:25.140Z,20.78
2023-04-27T02:10:25.197Z,20.78
2023-04-27T02:11:25.238Z,20.77
2023-04-27T02:12:25.307Z,20.81
2023-04-27T02:13:25.376Z,20.78
2023-04-27T02:14:25.450Z,20.77
2023-04-27T02:15:25.510Z,20.80
2023-04-27T02:16:25.660Z,20.78
2023-04-27T02:17:25.610Z,20.76
2023-04-27T02:18:25.674Z,20.76
2023-04-27T02:19:25.714Z,20.83
2023-04-27T02:20:25.778Z,20.83
2023-04-27T02:21:25.834Z,20.80
2023-04-27T02:22:25.863Z,20.86
2023-04-27T02:23:25.916Z,20.78
2023-04-27T02:24:25.960Z,20.80
2023-04-27T02:25:25.994Z,20.77
2023-04-27T02:26:26.011Z,20.86
2023-04-27T02:27:26.067Z,20.83
2023-04-27T02:28:26.145Z,20.77
2023-04-27T02:29:26.197Z,20.80
2023-04-27T02:30:26.264Z,20.80
2023-04-27T02:31:26.347Z,20.85
2023-04-27T02:32:26.393Z,20.83
2023-04-27T02:33:26.435Z,20.81
2023-04-27T02:34:26.477Z,20.81
2023-04-27T02:35:26.562Z,20.86
2023-04-27T02:36:26.587Z,20.85
2023-04-27T02:37:26.619Z,20.81
2023-04-27T02:38:26.643Z,20.78
2023-04-27T02:39:26.685Z,20.86
2023-04-27T02:40:26.714Z,20.81
2023-04-27T02:41:26.741Z,20.86
2023-04-27T02:42:26.795Z,20.85
2023-04-27T02:43:26.830Z,20.83
2023-04-27T02:44:26.885Z,20.89
2023-04-27T02:45:26.901Z,20.88
2023-04-27T02:46:27.053Z,20.88
2023-04-27T02:47:27.000Z,20.85
2023-04-27T02:48:26.989Z,20.81
2023-04-27T02:49:27.036Z,20.86
2023-04-27T02:50:27.103Z,20.86
2023-04-27T02:51:27.129Z,20.83
2023-04-27T02:52:27.184Z,20.89
2023-04-27T02:53:27.214Z,20.89
2023-04-27T02:54:27.271Z,20.86
2023-04-27T02:55:27.295Z,20.89
2023-04-27T02:56:27.338Z,20.91
2023-04-27T02:57:27.413Z,20.86
2023-04-27T02:58:27.475Z,20.88
2023-04-27T02:59:27.502Z,20.83
2023-04-27T03:00:27.547Z,20.89
2023-04-27T03:01:27.601Z,20.88
2023-04-27T03:02:27.732Z,20.86
2023-04-27T03:03:27.861Z,20.91
2023-04-27T03:04:27.941Z,20.89
2023-04-27T03:05:27.801Z,20.89
2023-04-27T03:06:27.849Z,20.94
2023-04-27T03:07:27.882Z,20.89
2023-04-27T03:08:27.934Z,20.91
2023-04-27T03:09:27.995Z,20.94
2023-04-27T03:10:28.018Z,20.94
2023-04-27T03:11:28.084Z,20.89
2023-04-27T03:12:28.133Z,20.86
2023-04-27T03:13:28.178Z,20.94
2023-04-27T03:14:28.264Z,20.92
2023-04-27T03:15:28.313Z,20.94
2023-04-27T03:16:28.442Z,20.91
2023-04-27T03:17:28.477Z,20.92
2023-04-27T03:18:28.497Z,20.97
2023-04-27T03:19:28.518Z,20.92
2023-04-27T03:20:28.569Z,20.98
2023-04-27T03:21:28.604Z,20.94
2023-04-27T03:22:28.622Z,20.94
2023-04-27T03:23:28.652Z,20.97
2023-04-27T03:24:28.717Z,20.98
2023-04-27T03:25:28.759Z,20.94
2023-04-27T03:26:28.809Z,20.97
2023-04-27T03:27:28.852Z,20.97
2023-04-27T03:28:28.887Z,21.01
2023-04-27T03:29:28.926Z,20.98
2023-04-27T03:30:28.972Z,20.97
2023-04-27T03:31:29.103Z,20.97
2023-04-27T03:32:29.089Z,20.95
2023-04-27T03:33:29.095Z,20.98
2023-04-27T03:34:29.118Z,20.97
2023-04-27T03:35:29.189Z,20.97
2023-04-27T03:36:29.232Z,20.98
2023-04-27T03:37:29.271Z,21.00
2023-04-27T03:38:29.329Z,20.97
2023-04-27T03:39:29.358Z,20.95
2023-04-27T03:40:29.405Z,21.00
2023-04-27T03:41:29.431Z,21.01
2023-04-27T03:42:29.503Z,21.04
2023-04-27T03:43:29.545Z,21.00
2023-04-27T03:44:29.612Z,21.04
2023-04-27T03:45:29.662Z,21.01
2023-04-27T03:46:29.711Z,21.01
2023-04-27T03:47:29.806Z,21.03
2023-04-27T03:48:29.825Z,21.04
2023-04-27T03:49:29.845Z,21.08
2023-04-27T03:50:30.365Z,21.03
2023-04-27T03:51:29.936Z,21.06
2023-04-27T03:52:29.978Z,21.08
2023-04-27T03:53:30.059Z,21.06
2023-04-27T03:54:30.079Z,21.03
2023-04-27T03:55:30.139Z,21.06
2023-04-27T03:56:30.207Z,21.08
2023-04-27T03:57:30.240Z,21.09
2023-04-27T03:58:30.311Z,21.09
2023-04-27T03:59:30.396Z,21.15
2023-04-27T04:00:30.419Z,21.09
2023-04-27T04:01:30.477Z,21.08
2023-04-27T04:02:30.603Z,21.06
2023-04-27T04:03:30.807Z,21.13
2023-04-27T04:04:30.736Z,21.15
2023-04-27T04:05:30.683Z,21.08
2023-04-27T04:06:30.752Z,21.15
2023-04-27T04:07:30.803Z,21.09
2023-04-27T04:08:30.852Z,21.12
2023-04-27T04:09:30.912Z,21.20
2023-04-27T04:10:30.933Z,21.17
2023-04-27T04:11:30.990Z,21.17
2023-04-27T04:12:31.038Z,21.18
2023-04-27T04:13:31.083Z,21.16
2023-04-27T04:14:31.163Z,21.21
2023-04-27T04:15:31.198Z,21.27
2023-04-27T04:16:31.298Z,21.20
2023-04-27T04:17:31.349Z,21.20
2023-04-27T04:18:31.354Z,21.26
2023-04-27T04:19:31.406Z,21.26
2023-04-27T04:20:31.470Z,21.23
2023-04-27T04:21:31.486Z,21.21
2023-04-27T04:22:31.524Z,21.24
2023-04-27T04:23:31.562Z,21.26
2023-04-27T04:24:31.600Z,21.24
2023-04-27T04:25:31.631Z,21.27
2023-04-27T04:26:31.673Z,21.30
2023-04-27T04:27:31.761Z,21.34
2023-04-27T04:28:31.774Z,21.30
2023-04-27T04:29:31.851Z,21.29
2023-04-27T04:30:31.897Z,21.29
2023-04-27T04:31:31.959Z,21.29
2023-04-27T04:32:32.038Z,21.34
2023-04-27T04:33:32.026Z,21.32
2023-04-27T04:34:32.098Z,21.35
2023-04-27T04:35:32.129Z,21.35
2023-04-27T04:36:32.226Z,21.38
2023-04-27T04:37:32.239Z,21.38
2023-04-27T04:38:32.262Z,21.38
2023-04-27T04:39:32.313Z,21.38
2023-04-27T04:40:32.362Z,21.43
2023-04-27T04:41:32.425Z,21.40
2023-04-27T04:42:32.474Z,21.35
2023-04-27T04:43:32.541Z,21.41
2023-04-27T04:44:32.593Z,21.41
2023-04-27T04:45:32.668Z,21.48
2023-04-27T04:46:32.752Z,21.47
2023-04-27T04:47:32.875Z,21.51
2023-04-27T04:48:32.856Z,21.47
2023-04-27T04:49:32.891Z,21.50
2023-04-27T04:50:32.944Z,21.50
2023-04-27T04:51:32.967Z,21.49
2023-04-27T04:52:33.014Z,21.49
2023-04-27T04:53:33.054Z,21.55
2023-04-27T04:54:33.101Z,21.53
2023-04-27T04:55:33.140Z,21.55
2023-04-27T04:56:33.223Z,21.55
2023-04-27T04:57:33.269Z,21.53
2023-04-27T04:58:33.324Z,21.56
2023-04-27T04:59:33.372Z,21.60
2023-04-27T05:00:33.419Z,21.86
2023-04-27T05:01:33.502Z,21.83
2023-04-27T05:02:33.579Z,21.86
2023-04-27T05:03:33.690Z,21.89
2023-04-27T05:04:33.641Z,21.87
2023-04-27T05:05:33.617Z,22.15
2023-04-27T05:06:33.704Z,22.16
2023-04-27T05:07:33.737Z,22.29
2023-04-27T05:08:33.769Z,22.38
2023-04-27T05:09:33.816Z,22.41
2023-04-27T05:10:33.867Z,22.27
2023-04-27T05:11:33.906Z,22.33
2023-04-27T05:12:33.917Z,22.36
2023-04-27T05:13:33.987Z,22.44
2023-04-27T05:14:34.051Z,22.49
2023-04-27T05:15:34.098Z,22.50
2023-04-27T05:16:34.235Z,22.55
2023-04-27T05:17:34.281Z,22.55
2023-04-27T05:18:34.305Z,22.63
2023-04-27T05:19:34.369Z,22.52
2023-04-27T05:20:34.445Z,22.86
2023-04-27T05:21:34.473Z,22.60
2023-04-27T05:22:34.525Z,22.63
2023-04-27T05:23:34.588Z,22.71
2023-04-27T05:24:34.644Z,22.63
2023-04-27T05:25:34.704Z,22.55
2023-04-27T05:26:34.794Z,22.97
2023-04-27T05:27:34.806Z,23.01
2023-04-27T05:28:34.858Z,23.35
2023-04-27T05:29:34.930Z,23.94
2023-04-27T05:30:35.000Z,23.95
2023-04-27T05:31:35.094Z,24.01
2023-04-27T05:32:35.131Z,23.57
2023-04-27T05:33:35.156Z,23.79
2023-04-27T05:34:35.216Z,23.87
2023-04-27T05:35:35.330Z,23.75
2023-04-27T05:36:35.349Z,24.22
2023-04-27T05:37:35.853Z,24.06
2023-04-27T05:38:35.469Z,24.18
2023-04-27T05:39:35.537Z,25.27
2023-04-27T05:40:35.834Z,24.57
2023-04-27T05:41:35.638Z,24.81
2023-04-27T05:42:35.846Z,25.02
2023-04-27T05:43:35.773Z,25.50
2023-04-27T05:44:35.809Z,25.09
2023-04-27T05:45:35.878Z,25.30
2023-04-27T05:46:38.377Z,25.29
2023-04-27T05:47:35.917Z,25.15
2023-04-27T05:48:35.889Z,25.21
2023-04-27T05:49:35.899Z,25.09
2023-04-27T05:50:35.884Z,25.13
2023-04-27T05:51:35.866Z,25.16
2023-04-27T05:52:37.617Z,25.07
2023-04-27T05:53:35.852Z,25.07
2023-04-27T05:54:35.836Z,25.03
2023-04-27T05:55:35.854Z,25.06
2023-04-27T05:56:35.821Z,25.08
2023-04-27T05:57:35.844Z,25.12
2023-04-27T05:58:35.811Z,25.11
2023-04-27T05:59:35.810Z,25.11
2023-04-27T06:00:35.797Z,25.14
2023-04-27T06:01:35.816Z,25.15
2023-04-27T06:02:35.931Z,25.25
2023-04-27T06:03:35.955Z,25.27
2023-04-27T06:04:35.818Z,25.30
2023-04-27T06:05:35.837Z,25.34
2023-04-27T06:06:35.837Z,25.36
2023-04-27T06:07:35.854Z,25.37
2023-04-27T06:08:35.860Z,25.65
2023-04-27T06:09:35.846Z,25.47
2023-04-27T06:10:35.862Z,25.55
2023-04-27T06:11:35.853Z,25.49
2023-04-27T06:12:36.375Z,25.70
2023-04-27T06:13:35.877Z,25.40
2023-04-27T06:14:35.887Z,25.76
2023-04-27T06:15:35.928Z,25.55
2023-04-27T06:16:35.942Z,25.53
2023-04-27T06:17:35.904Z,25.49
2023-04-27T06:18:35.883Z,25.71
2023-04-27T06:19:35.905Z,25.61
2023-04-27T06:20:35.917Z,25.61
2023-04-27T06:21:35.899Z,25.60
2023-04-27T06:22:35.924Z,25.59
2023-04-27T06:23:35.956Z,25.56
2023-04-27T06:24:35.975Z,25.57
2023-04-27T06:25:36.024Z,25.49
2023-04-27T06:26:36.063Z,25.52
2023-04-27T06:27:36.083Z,25.59
2023-04-27T06:28:36.127Z,25.54
2023-04-27T06:29:36.179Z,25.57
2023-04-27T06:30:37.661Z,25.38
2023-04-27T06:31:36.216Z,25.74
2023-04-27T06:32:36.228Z,25.78
2023-04-27T06:33:36.191Z,26.32
2023-04-27T06:34:36.176Z,26.47
2023-04-27T06:35:36.383Z,26.33
2023-04-27T06:36:36.185Z,26.22
2023-04-27T06:37:36.161Z,26.24
2023-04-27T06:38:36.178Z,26.26
2023-04-27T06:39:36.158Z,26.21
2023-04-27T06:40:36.153Z,26.12
2023-04-27T06:41:36.144Z,26.09
2023-04-27T06:42:36.433Z,26.10
2023-04-27T06:43:36.131Z,26.11
2023-04-27T06:44:36.126Z,26.09
2023-04-27T06:45:36.214Z,26.17
2023-04-27T06:46:36.224Z,26.07
2023-04-27T06:47:36.379Z,26.02
2023-04-27T06:48:36.114Z,26.06
2023-04-27T06:49:36.082Z,26.12
2023-04-27T06:50:36.088Z,26.06
2023-04-27T06:51:36.072Z,26.02
2023-04-27T06:52:36.090Z,25.99
2023-04-27T06:53:36.092Z,25.97
2023-04-27T06:54:36.054Z,25.90
2023-04-27T06:55:36.063Z,25.95
2023-04-27T06:56:36.142Z,25.81
2023-04-27T06:57:36.055Z,25.87
2023-04-27T06:58:36.024Z,25.78
2023-04-27T06:59:36.017Z,25.85
2023-04-27T07:00:36.374Z,25.48
2023-04-27T07:01:36.019Z,25.76
2023-04-27T07:02:36.102Z,25.73
2023-04-27T07:03:36.114Z,25.78
2023-04-27T07:04:36.013Z,25.90
2023-04-27T07:05:36.002Z,25.74
2023-04-27T07:06:35.983Z,25.79
2023-04-27T07:07:35.974Z,25.79
2023-04-27T07:08:36.419Z,25.75
2023-04-27T07:09:35.981Z,25.81
2023-04-27T07:10:35.982Z,25.92
2023-04-27T07:11:35.957Z,25.57
2023-04-27T07:12:35.939Z,25.84
2023-04-27T07:13:35.960Z,25.99
2023-04-27T07:14:35.988Z,25.74
2023-04-27T07:15:35.933Z,25.65
2023-04-27T07:16:35.954Z,25.75
2023-04-27T07:17:35.916Z,25.77
2023-04-27T07:18:36.395Z,25.61
2023-04-27T07:19:35.917Z,25.71
2023-04-27T07:20:35.875Z,25.69
2023-04-27T07:21:35.892Z,25.67
2023-04-27T07:22:35.942Z,25.66
2023-04-27T07:23:36.399Z,25.67
2023-04-27T07:24:36.042Z,25.66
2023-04-27T07:25:36.103Z,25.69
2023-04-27T07:26:36.161Z,25.73
2023-04-27T07:27:36.223Z,25.62
2023-04-27T07:28:36.415Z,25.40
2023-04-27T07:29:36.353Z,25.93
2023-04-27T07:30:36.417Z,25.95
2023-04-27T07:31:36.518Z,25.86
2023-04-27T07:32:36.559Z,25.92
2023-04-27T07:33:36.612Z,25.87
2023-04-27T07:34:49.006Z,25.88
2023-04-27T07:35:37.650Z,25.87
2023-04-27T07:36:36.625Z,25.99
2023-04-27T07:37:36.625Z,25.97
2023-04-27T07:38:36.617Z,25.88
2023-04-27T07:39:36.602Z,25.99
2023-04-27T07:40:36.609Z,26.01
2023-04-27T07:41:36.595Z,25.92
2023-04-27T07:42:36.584Z,25.94
2023-04-27T07:43:36.580Z,25.94
2023-04-27T07:44:36.582Z,25.96
2023-04-27T07:45:36.637Z,25.97
2023-04-27T07:46:36.659Z,25.96
2023-04-27T07:47:36.719Z,25.99
2023-04-27T07:48:36.744Z,25.99
2023-04-27T07:49:36.791Z,26.08
2023-04-27T07:50:36.864Z,25.73
2023-04-27T07:51:36.905Z,25.79
2023-04-27T07:52:36.959Z,25.74
2023-04-27T07:53:37.005Z,25.84
2023-04-27T07:54:37.037Z,25.81
2023-04-27T07:55:37.092Z,25.74
2023-04-27T07:56:37.135Z,25.66
2023-04-27T07:57:37.180Z,25.66
2023-04-27T07:58:37.248Z,25.63
2023-04-27T07:59:37.298Z,25.78
2023-04-27T08:00:37.329Z,25.79
2023-04-27T08:01:37.420Z,25.53
2023-04-27T08:02:37.675Z,25.62
2023-04-27T08:03:37.646Z,25.61
2023-04-27T08:04:37.840Z,25.60
2023-04-27T08:05:37.719Z,25.36
2023-04-27T08:06:38.356Z,25.53
2023-04-27T08:07:42.780Z,25.54
2023-04-27T08:08:38.936Z,25.44
2023-04-27T08:09:37.654Z,25.48
2023-04-27T08:10:37.647Z,25.47
2023-04-27T08:11:37.627Z,25.45
2023-04-27T08:12:37.633Z,25.50
2023-04-27T08:13:37.621Z,25.68
2023-04-27T08:14:37.616Z,25.56
2023-04-27T08:15:37.647Z,25.70
2023-04-27T08:16:37.728Z,25.64
2023-04-27T08:17:37.608Z,25.58
2023-04-27T08:18:37.597Z,25.59
2023-04-27T08:19:37.576Z,25.59
2023-04-27T08:20:37.573Z,25.49
2023-04-27T08:21:37.624Z,25.30
2023-04-27T08:22:37.668Z,25.16
2023-04-27T08:23:37.727Z,25.38
2023-04-27T08:24:37.808Z,25.35
2023-04-27T08:25:37.863Z,25.48
2023-04-27T08:26:37.884Z,25.57
2023-04-27T08:27:37.875Z,25.61
2023-04-27T08:28:37.878Z,25.44
2023-04-27T08:29:37.865Z,25.47
2023-04-27T08:30:37.870Z,25.42
2023-04-27T08:31:37.909Z,25.51
2023-04-27T08:32:37.919Z,25.64
2023-04-27T08:33:37.876Z,25.54
2023-04-27T08:34:37.886Z,25.75
2023-04-27T08:35:37.886Z,25.94
2023-04-27T08:36:37.894Z,26.44
2023-04-27T08:37:37.906Z,26.37
2023-04-27T08:38:37.958Z,26.66
2023-04-27T08:39:38.011Z,27.14
2023-04-27T08:40:38.106Z,27.07
2023-04-27T08:41:38.421Z,26.90
2023-04-27T08:42:38.195Z,27.07
2023-04-27T08:43:38.252Z,27.10
2023-04-27T08:44:38.326Z,26.86
2023-04-27T08:45:38.564Z,27.58
2023-04-27T08:46:38.464Z,26.94
2023-04-27T08:47:43.390Z,27.01
2023-04-27T08:48:39.465Z,27.01
2023-04-27T08:49:38.455Z,26.84
2023-04-27T08:50:38.454Z,26.90
2023-04-27T08:51:38.453Z,27.02
2023-04-27T08:52:38.445Z,26.88
2023-04-27T08:53:38.933Z,26.60
2023-04-27T08:54:38.419Z,27.08
2023-04-27T08:55:38.423Z,27.31
2023-04-27T08:56:38.402Z,27.20
2023-04-27T08:57:38.395Z,27.16
2023-04-27T08:58:38.454Z,27.55
2023-04-27T08:59:38.390Z,27.27
2023-04-27T09:00:38.373Z,27.33
2023-04-27T09:01:38.407Z,26.84
2023-04-27T09:02:38.493Z,26.60
2023-04-27T09:03:38.535Z,26.54
2023-04-27T09:04:38.492Z,26.54
2023-04-27T09:05:44.152Z,26.22
2023-04-27T09:06:39.425Z,26.31
2023-04-27T09:07:38.424Z,26.34
2023-04-27T09:08:38.403Z,26.55
2023-04-27T09:09:38.438Z,26.12
2023-04-27T09:10:38.404Z,26.23
2023-04-27T09:11:38.404Z,26.02
2023-04-27T09:12:38.372Z,26.05
2023-04-27T09:13:38.380Z,25.98
2023-04-27T09:14:38.376Z,25.87
2023-04-27T09:15:38.360Z,25.76
2023-04-27T09:16:38.390Z,25.77
2023-04-27T09:17:38.377Z,25.81
2023-04-27T09:18:38.380Z,26.08
2023-04-27T09:19:38.330Z,25.90
2023-04-27T09:20:38.337Z,25.85
2023-04-27T09:21:38.317Z,25.89
2023-04-27T09:22:38.324Z,25.79
2023-04-27T09:23:38.354Z,25.65
2023-04-27T09:24:38.320Z,25.40
2023-04-27T09:25:38.324Z,25.57
2023-04-27T09:26:38.310Z,25.26
2023-04-27T09:27:38.286Z,25.91
2023-04-27T09:28:38.489Z,25.79
2023-04-27T09:29:38.299Z,26.29
2023-04-27T09:30:38.281Z,26.55
2023-04-27T09:31:38.470Z,26.42
2023-04-27T09:32:38.294Z,26.34
2023-04-27T09:33:38.258Z,26.36
2023-04-27T09:34:38.222Z,26.23
2023-04-27T09:35:38.229Z,26.36
2023-04-27T09:36:38.454Z,26.40
2023-04-27T09:37:38.211Z,26.24
2023-04-27T09:38:38.207Z,26.41
2023-04-27T09:39:38.202Z,26.30
2023-04-27T09:40:38.241Z,26.25
2023-04-27T09:41:38.454Z,26.30
2023-04-27T09:42:38.329Z,26.17
2023-04-27T09:43:38.377Z,26.35
2023-04-27T09:44:38.404Z,26.14
2023-04-27T09:45:38.481Z,26.20
2023-04-27T09:46:38.465Z,26.28
2023-04-27T09:47:38.512Z,26.29
2023-04-27T09:48:38.521Z,25.97
2023-04-27T09:49:38.522Z,25.93
2023-04-27T09:50:38.541Z,25.87
2023-04-27T09:51:38.972Z,25.79
2023-04-27T09:52:38.544Z,25.91
2023-04-27T09:53:38.544Z,26.10
2023-04-27T09:54:38.533Z,26.08
2023-04-27T09:55:38.569Z,26.05
2023-04-27T09:56:38.943Z,26.21
2023-04-27T09:57:38.573Z,26.10
2023-04-27T09:58:38.593Z,25.97
2023-04-27T09:59:38.947Z,25.97
2023-04-27T10:00:38.667Z,25.90
2023-04-27T10:01:38.722Z,25.74
2023-04-27T10:02:52.181Z,25.82
2023-04-27T10:03:39.847Z,25.83
2023-04-27T10:04:38.886Z,25.63
2023-04-27T10:05:38.761Z,25.59
2023-04-27T10:06:38.768Z,25.58
2023-04-27T10:07:38.743Z,25.57
2023-04-27T10:08:38.747Z,25.53
2023-04-27T10:09:38.741Z,25.47
2023-04-27T10:10:38.751Z,25.44
2023-04-27T10:11:38.732Z,25.47
2023-04-27T10:12:38.778Z,25.42
2023-04-27T10:13:38.822Z,25.41
2023-04-27T10:14:38.873Z,25.46
2023-04-27T10:15:38.893Z,25.51
2023-04-27T10:16:38.965Z,25.44
2023-04-27T10:17:39.012Z,25.46
2023-04-27T10:18:38.986Z,25.39
2023-04-27T10:19:39.048Z,25.33
2023-04-27T10:20:39.056Z,25.43
2023-04-27T10:21:39.064Z,25.34
2023-04-27T10:22:39.095Z,25.03
2023-04-27T10:23:39.141Z,24.97
2023-04-27T10:24:39.175Z,24.75
2023-04-27T10:25:39.208Z,25.01
2023-04-27T10:26:40.025Z,25.03
2023-04-27T10:27:39.336Z,25.02
2023-04-27T10:28:39.394Z,25.11
2023-04-27T10:29:39.428Z,25.13
2023-04-27T10:30:39.699Z,25.16
2023-04-27T10:31:39.994Z,25.09
2023-04-27T10:32:39.583Z,25.15
2023-04-27T10:33:39.588Z,25.21
2023-04-27T10:34:39.649Z,25.28
2023-04-27T10:35:39.651Z,25.13
2023-04-27T10:36:39.662Z,25.05
2023-04-27T10:37:39.709Z,24.95
2023-04-27T10:38:39.723Z,25.04
2023-04-27T10:39:46.969Z,24.90
2023-04-27T10:40:40.753Z,24.66
2023-04-27T10:41:39.745Z,23.13
2023-04-27T10:42:39.754Z,25.15
2023-04-27T10:43:39.731Z,25.42
2023-04-27T10:44:39.726Z,26.99
2023-04-27T10:45:39.737Z,29.12
2023-04-27T10:46:39.796Z,30.30
2023-04-27T10:47:39.736Z,31.39
2023-04-27T10:48:39.708Z,32.88
2023-04-27T10:49:39.693Z,33.80
2023-04-27T10:50:39.701Z,33.64
2023-04-27T10:51:39.999Z,33.43
2023-04-27T10:52:39.672Z,33.55
2023-04-27T10:53:39.720Z,33.64
2023-04-27T10:54:39.978Z,34.13
2023-04-27T10:55:39.758Z,34.58
2023-04-27T10:56:39.981Z,35.35
2023-04-27T10:57:40.168Z,35.22
2023-04-27T10:59:39.866Z,36.29
2023-04-27T11:00:39.856Z,35.20
2023-04-27T11:01:39.867Z,35.60
2023-04-27T11:02:39.921Z,35.03
2023-04-27T11:03:40.050Z,35.52
2023-04-27T11:04:39.837Z,35.77
2023-04-27T11:05:39.823Z,36.22
2023-04-27T11:06:39.834Z,36.48
2023-04-27T11:07:39.831Z,36.76
2023-04-27T11:08:39.849Z,36.98
2023-04-27T11:09:39.794Z,36.08
2023-04-27T11:10:39.789Z,35.90
2023-04-27T11:11:39.803Z,35.39
2023-04-27T11:12:39.805Z,36.19
2023-04-27T11:13:39.800Z,36.06
2023-04-27T11:14:39.756Z,35.60
2023-04-27T11:15:39.773Z,34.79
2023-04-27T11:16:40.061Z,35.14
2023-04-27T11:17:39.803Z,34.90
2023-04-27T11:18:39.736Z,34.31
2023-04-27T11:19:39.717Z,34.09
2023-04-27T11:20:39.718Z,34.46
2023-04-27T11:21:40.001Z,35.22
2023-04-27T11:22:39.725Z,35.86
2023-04-27T11:23:39.706Z,35.82
2023-04-27T11:24:39.715Z,35.52
2023-04-27T11:25:39.693Z,35.24
2023-04-27T11:26:39.690Z,34.65
2023-04-27T11:27:39.684Z,33.82
2023-04-27T11:28:39.676Z,33.01
2023-04-27T11:29:39.701Z,32.95
2023-04-27T11:30:39.649Z,32.39
2023-04-27T11:31:39.712Z,31.79
2023-04-27T11:32:39.680Z,31.45
2023-04-27T11:33:39.642Z,30.87
2023-04-27T11:34:39.639Z,30.29
2023-04-27T11:35:39.632Z,29.87
2023-04-27T11:36:39.607Z,29.59
2023-04-27T11:37:39.618Z,29.10
2023-04-27T11:38:39.681Z,28.67
2023-04-27T11:39:39.602Z,28.44
2023-04-27T11:40:39.578Z,28.09
2023-04-27T11:41:39.598Z,27.93
2023-04-27T11:42:39.583Z,27.69
2023-04-27T11:43:39.558Z,27.55
2023-04-27T11:44:39.574Z,27.33
2023-04-27T11:45:39.567Z,27.07
2023-04-27T11:46:39.596Z,26.84
2023-04-27T11:47:39.579Z,26.69
2023-04-27T11:48:39.565Z,26.51
2023-04-27T11:49:39.544Z,26.40
2023-04-27T11:50:39.519Z,26.22
2023-04-27T11:51:39.521Z,26.13
2023-04-27T11:52:39.514Z,25.99
2023-04-27T11:53:39.543Z,25.90
2023-04-27T11:54:39.556Z,25.75
2023-04-27T11:55:39.479Z,25.69
2023-04-27T11:56:39.502Z,25.56
2023-04-27T11:57:39.464Z,25.50
2023-04-27T11:58:39.621Z,25.51
2023-04-27T11:59:39.468Z,25.41
2023-04-27T12:00:39.445Z,25.33
2023-04-27T12:01:39.461Z,25.25
2023-04-27T12:02:39.621Z,25.23
2023-04-27T12:03:39.705Z,25.17
2023-04-27T12:04:39.741Z,25.11
2023-04-27T12:05:39.680Z,25.06
2023-04-27T12:06:39.769Z,25.05
2023-04-27T12:07:39.721Z,24.93
2023-04-27T12:08:39.750Z,24.91
2023-04-27T12:09:39.769Z,24.92
2023-04-27T12:10:39.802Z,24.88
2023-04-27T12:11:39.842Z,24.87
2023-04-27T12:12:39.877Z,24.87
2023-04-27T12:13:39.912Z,24.80
2023-04-27T12:14:39.928Z,24.78
2023-04-27T12:15:39.954Z,24.80
2023-04-27T12:16:40.050Z,24.70
2023-04-27T12:17:40.075Z,24.68
2023-04-27T12:18:40.074Z,24.70
2023-04-27T12:19:40.097Z,24.68
2023-04-27T12:20:40.117Z,24.60
2023-04-27T12:21:40.124Z,24.61
2023-04-27T12:22:40.150Z,24.61
2023-04-27T12:23:40.188Z,24.57
2023-04-27T12:24:40.217Z,24.54
2023-04-27T12:25:40.273Z,24.54
2023-04-27T12:26:40.261Z,24.62
2023-04-27T12:27:40.306Z,24.65
2023-04-27T12:28:40.325Z,24.58
2023-04-27T12:29:40.354Z,24.53
2023-04-27T12:30:40.395Z,24.61
2023-04-27T12:31:40.476Z,24.70
2023-04-27T12:32:40.495Z,24.78
2023-04-27T12:33:40.464Z,24.74
2023-04-27T12:34:40.561Z,24.77
2023-04-27T12:35:40.510Z,24.76
2023-04-27T12:36:40.541Z,24.72
2023-04-27T12:37:40.595Z,24.85
2023-04-27T12:38:40.643Z,24.94
2023-04-27T12:39:40.722Z,24.95
2023-04-27T12:40:40.756Z,25.27
2023-04-27T12:41:40.817Z,25.17
2023-04-27T12:42:40.858Z,25.28
2023-04-27T12:43:40.912Z,25.36
2023-04-27T12:44:40.968Z,25.46
2023-04-27T12:45:40.953Z,25.47
2023-04-27T12:46:41.035Z,25.45
2023-04-27T12:48:41.991Z,25.59
2023-04-27T12:49:40.966Z,25.87
2023-04-27T12:50:40.945Z,25.73
2023-04-27T12:51:40.945Z,26.03
2023-04-27T12:52:41.017Z,25.75
2023-04-27T12:53:40.915Z,25.92
2023-04-27T12:54:41.057Z,25.81